Nearby METAR Reports

 

NZAA - Auckland Intl Ar, New Zealand
Distance from station: SW 18km
Updated: 16/06/2024 05:30
Clear
Clear
 Wind from NNE
Wind: NNE 9 km/h
Temperature: 10°C
Wind Chill: 9°C
Dew Point: 8°C
Humidity: 88%
Barometer: 1010 hPa
Clouds: Clear
Visibility: 10 km
2024/06/15 17:30 NZAA 151730Z AUTO 03005KT 9999 NCD 10/08 Q1010
NZWP - Whenuapai (nz-Af, New Zealand
Distance from station: WNW 30km
Updated: 09/11/2022 11:00
NOT Current
Mostly cloudy
Mostly cloudy
 Wind from SSE
Wind: SSE 15 km/h
Temperature: 17°C
Dew Point: 14°C
Humidity: 83%
Barometer: 1012 hPa
Clouds: Mostly cloudy
Cloud details: Few Clouds 457 m
Partly cloudy 762 m
Mostly cloudy 1219 m
2022/11/08 22:00 NZWP 082200Z 16008KT 120V200 20KM FEW015 SCT025 BKN040 17/14 Q1012 NOSIG
 
NZWN - Wellington Intl, New Zealand
Distance from station: S 493km
Updated: 16/06/2024 05:30
Clear
Clear
 Wind from N
Wind: N 15 km/h
Temperature: 10°C
Wind Chill: 8°C
Dew Point: 7°C
Humidity: 82%
Barometer: 1005 hPa
Clouds: Clear
Visibility: 10 km
2024/06/15 17:30 NZWN 151730Z AUTO 36008KT 9999 NCD 10/07 Q1005
NZCH - Christchurch Int, New Zealand
Distance from station: SSW 759km
Updated: 16/06/2024 05:30
Clear
Clear
 Wind from N
Wind: N 11 km/h
Temperature: 0°C
Wind Chill: -4°C
Dew Point: 0°C
Humidity: 100%
Barometer: 999 hPa
Clouds: Clear
Visibility: 10 km
2024/06/15 17:30 NZCH 151730Z AUTO 35006KT 9999 NCD 00/00 Q0999
 
YSNF - Norfolk Island A, Australia
Distance from station: NW 1091km
Updated: 16/06/2024 05:30
Partly cloudy
Partly cloudy
 Wind from NNE
Wind: NNE 17 km/h
Temperature: 18°C
Dew Point: 13°C
Humidity: 73%
Barometer: 1008 hPa
Clouds: Partly cloudy
Visibility: 10 km
Cloud details: Partly cloudy 2621 m
Partly cloudy 3353 m
2024/06/15 17:30 YSNF 151730Z AUTO 02009KT 9999 // SCT086 SCT110 18/13 Q1008